createdAt,value
2019-02-05T00:02:34.423Z,99366.34
2019-02-05T00:07:40.490Z,99363.40
2019-02-05T00:12:45.719Z,99369.44
2019-02-05T00:17:51.711Z,99374.52
2019-02-05T00:22:57.069Z,99371.67
2019-02-05T00:28:02.374Z,99377.67
2019-02-05T00:33:08.868Z,99366.92
2019-02-05T00:38:14.078Z,99379.94
2019-02-05T00:43:19.262Z,99375.23
2019-02-05T00:48:25.297Z,99371.79
2019-02-05T00:53:30.574Z,99370.95
2019-02-05T00:58:35.796Z,99371.91
2019-02-05T01:03:41.035Z,99367.14
2019-02-05T01:08:46.211Z,99351.53
2019-02-05T01:13:53.017Z,99350.81
2019-02-05T01:18:58.790Z,99348.93
2019-02-05T01:24:05.080Z,99345.90
2019-02-05T01:29:10.685Z,99349.33
2019-02-05T01:34:15.963Z,99330.75
2019-02-05T01:39:21.160Z,99339.05
2019-02-05T01:44:26.975Z,99336.30
2019-02-05T01:49:33.191Z,99333.23
2019-02-05T01:54:38.363Z,99322.23
2019-02-05T01:59:44.001Z,99317.25
2019-02-05T02:04:50.736Z,99319.52
2019-02-05T02:09:56.305Z,99320.69
2019-02-05T02:15:01.514Z,99309.59
2019-02-05T02:20:09.387Z,99317.03
2019-02-05T02:25:15.145Z,99323.54
2019-02-05T02:30:23.987Z,99321.87
2019-02-05T02:35:29.216Z,99305.89
2019-02-05T02:40:35.265Z,99311.92
2019-02-05T02:45:40.548Z,99309.42
2019-02-05T02:50:46.128Z,99298.92
2019-02-05T02:55:52.527Z,99282.02
2019-02-05T03:00:57.914Z,99285.75
2019-02-05T03:06:03.095Z,99298.34
2019-02-05T03:11:08.784Z,99298.82
2019-02-05T03:16:14.129Z,99297.15
2019-02-05T03:21:19.373Z,99291.88
2019-02-05T03:26:25.030Z,99282.20
2019-02-05T03:31:30.348Z,99270.75
2019-02-05T03:36:35.955Z,99259.55
2019-02-05T03:41:43.671Z,99254.72
2019-02-05T03:46:49.179Z,99263.34
2019-02-05T03:52:11.303Z,99273.88
2019-02-05T03:57:53.877Z,99280.49
2019-02-05T04:03:12.506Z,99296.81
2019-02-05T04:08:56.777Z,99301.55
2019-02-05T04:14:46.591Z,99308.17
2019-02-05T04:20:47.981Z,99306.25
2019-02-05T04:26:05.150Z,99286.27
2019-02-05T04:31:37.496Z,99290.67
2019-02-05T04:37:10.114Z,99290.67
2019-02-05T04:42:51.617Z,99302.25
2019-02-05T04:48:43.694Z,99329.92
2019-02-05T04:54:26.096Z,99322.37
2019-02-05T05:00:18.139Z,99310.64
2019-02-05T05:05:47.029Z,99305.80
2019-02-05T05:10:52.369Z,99312.89
2019-02-05T05:15:58.384Z,99318.72
2019-02-05T05:21:03.917Z,99317.52
2019-02-05T05:26:09.628Z,99317.63
2019-02-05T05:31:14.841Z,99310.52
2019-02-05T05:36:20.328Z,99310.41
2019-02-05T05:41:26.373Z,99305.57
2019-02-05T05:46:31.649Z,99299.52
2019-02-05T05:51:36.801Z,99308.16
2019-02-05T05:56:41.978Z,99306.97
2019-02-05T06:01:47.358Z,99315.63
2019-02-05T06:06:52.581Z,99309.23
2019-02-05T06:11:57.818Z,99321.40
2019-02-05T06:17:03.014Z,99327.81
2019-02-05T06:22:08.600Z,99335.25
2019-02-05T06:27:14.225Z,99328.96
2019-02-05T06:32:19.398Z,99322.34
2019-02-05T06:37:24.761Z,99332.52
2019-02-05T06:42:30.389Z,99329.11
2019-02-05T06:47:35.863Z,99332.43
2019-02-05T06:52:41.721Z,99341.41
2019-02-05T06:57:49.157Z,99341.05
2019-02-05T07:02:54.677Z,99341.05
2019-02-05T07:08:00.763Z,99354.54
2019-02-05T07:13:06.132Z,99349.12
2019-02-05T07:18:11.625Z,99360.00
2019-02-05T07:23:16.959Z,99359.39
2019-02-05T07:28:22.719Z,99371.37
2019-02-05T07:33:28.355Z,99378.22
2019-02-05T07:38:34.203Z,99391.12
2019-02-05T07:43:40.451Z,99403.05
2019-02-05T07:48:46.212Z,99403.05
2019-02-05T07:53:51.590Z,99405.44
2019-02-05T07:58:56.932Z,99416.19
2019-02-05T08:04:02.187Z,99416.09
2019-02-05T08:09:10.291Z,99417.15
2019-02-05T08:14:17.341Z,99413.02
2019-02-05T08:19:22.528Z,99412.77
2019-02-05T08:24:28.036Z,99420.00
2019-02-05T08:29:33.426Z,99418.94
2019-02-05T08:34:39.074Z,99419.06
2019-02-05T08:39:44.258Z,99423.67
2019-02-05T08:44:50.924Z,99429.00
2019-02-05T08:49:56.119Z,99427.93
2019-02-05T08:55:01.664Z,99441.53
2019-02-05T09:00:10.776Z,99433.97
2019-02-05T09:05:16.377Z,99442.02
2019-02-05T09:10:24.303Z,99436.79
2019-02-05T09:15:29.941Z,99437.02
2019-02-05T09:20:36.144Z,99429.44
2019-02-05T09:25:43.262Z,99419.11
2019-02-05T09:30:50.125Z,99433.66
2019-02-05T09:35:55.292Z,99428.23
2019-02-05T09:41:00.807Z,99435.52
2019-02-05T09:46:06.560Z,99439.80
2019-02-05T09:51:11.783Z,99443.66
2019-02-05T09:56:17.644Z,99451.45
2019-02-05T10:01:22.797Z,99443.30
2019-02-05T10:06:27.963Z,99446.14
2019-02-05T10:11:33.986Z,99450.09
2019-02-05T10:16:39.506Z,99455.28
2019-02-05T10:21:45.042Z,99455.36
2019-02-05T10:26:50.212Z,99454.95
2019-02-05T10:31:55.659Z,99457.89
2019-02-05T10:37:00.821Z,99457.63
2019-02-05T10:42:07.053Z,99453.89
2019-02-05T10:47:12.494Z,99453.81
2019-02-05T10:52:17.690Z,99455.29
2019-02-05T10:57:22.862Z,99455.28
2019-02-05T11:02:28.010Z,99457.41
2019-02-05T11:07:33.193Z,99458.72
2019-02-05T11:12:38.738Z,99460.55
2019-02-05T11:17:43.906Z,99456.62
2019-02-05T11:22:49.116Z,99474.45
2019-02-05T11:27:54.271Z,99473.53
2019-02-05T11:32:59.457Z,99474.84
2019-02-05T11:38:06.046Z,99470.40
2019-02-05T11:43:11.197Z,99466.56
2019-02-05T11:48:17.982Z,99458.70
2019-02-05T11:53:23.350Z,99461.51
2019-02-05T11:58:28.507Z,99457.76
2019-02-05T12:03:34.250Z,99458.90
2019-02-05T12:08:39.381Z,99460.06
2019-02-05T12:13:44.790Z,99459.73
2019-02-05T12:18:49.884Z,99459.81
2019-02-05T12:23:54.980Z,99458.38
2019-02-05T12:29:00.461Z,99455.47
2019-02-05T12:34:06.509Z,99454.86
2019-02-05T12:39:21.123Z,99446.41
2019-02-05T12:44:26.596Z,99441.53
2019-02-05T12:49:31.719Z,99435.61
2019-02-05T12:54:37.727Z,99428.52
2019-02-05T12:59:43.231Z,99424.67
2019-02-05T13:04:48.321Z,99421.08
2019-02-05T13:09:53.496Z,99414.63
2019-02-05T13:14:58.661Z,99409.55
2019-02-05T13:20:04.673Z,99405.70
2019-02-05T13:25:15.507Z,99403.70
2019-02-05T13:30:26.137Z,99408.68
2019-02-05T13:35:31.510Z,99413.63
2019-02-05T13:40:37.661Z,99420.71
2019-02-05T13:45:43.525Z,99426.70
2019-02-05T13:50:48.993Z,99427.39
2019-02-05T13:55:54.668Z,99434.77
2019-02-05T14:00:59.834Z,99431.39
2019-02-05T14:06:05.018Z,99438.23
2019-02-05T14:11:10.309Z,99431.54
2019-02-05T14:16:16.022Z,99434.02
2019-02-05T14:21:21.110Z,99433.39
2019-02-05T14:26:26.963Z,99436.92
2019-02-05T14:31:33.185Z,99434.52
2019-02-05T14:36:38.367Z,99436.30
2019-02-05T14:41:43.842Z,99431.07
2019-02-05T14:46:49.922Z,99427.83
2019-02-05T14:51:57.783Z,99426.67
2019-02-05T14:57:02.215Z,99426.31
2019-02-05T15:02:08.035Z,99420.45
2019-02-05T15:07:13.538Z,99425.98
2019-02-05T15:12:19.950Z,99432.84
2019-02-05T15:17:26.035Z,99436.63
2019-02-05T15:22:31.192Z,99435.33
2019-02-05T15:27:36.277Z,99429.39
2019-02-05T15:32:57.893Z,99431.76
2019-02-05T15:38:03.114Z,99440.01
2019-02-05T15:43:08.280Z,99439.25
2019-02-05T15:48:13.521Z,99453.38
2019-02-05T15:53:19.051Z,99449.96
2019-02-05T15:58:24.225Z,99453.86
2019-02-05T16:03:31.165Z,99460.59
2019-02-05T16:08:36.803Z,99463.70
2019-02-05T16:13:42.139Z,99462.88
2019-02-05T16:18:47.299Z,99467.42
2019-02-05T16:23:52.730Z,99480.48
2019-02-05T16:28:59.963Z,99475.59
2019-02-05T16:34:06.908Z,99489.77
2019-02-05T16:39:12.381Z,99478.57
2019-02-05T16:44:19.565Z,99485.37
2019-02-05T16:49:24.680Z,99489.58
2019-02-05T16:54:30.272Z,99489.07
2019-02-05T16:59:35.721Z,99487.39
2019-02-05T17:04:41.000Z,99494.47
2019-02-05T17:09:46.528Z,99500.53
2019-02-05T17:14:52.722Z,99512.89
2019-02-05T17:19:58.192Z,99520.02
2019-02-05T17:25:03.974Z,99520.48
2019-02-05T17:30:12.386Z,99534.78
2019-02-05T17:35:17.990Z,99530.95
2019-02-05T17:40:24.606Z,99541.14
2019-02-05T17:45:34.986Z,99534.73
2019-02-05T17:50:40.327Z,99546.49
2019-02-05T17:55:47.289Z,99553.87
2019-02-05T18:00:57.057Z,99556.05
2019-02-05T18:06:02.289Z,99562.20
2019-02-05T18:11:09.856Z,99559.96
2019-02-05T18:16:18.169Z,99559.69
2019-02-05T18:21:23.514Z,99558.05
2019-02-05T18:26:28.867Z,99562.38
2019-02-05T18:31:36.418Z,99562.03
2019-02-05T18:36:42.563Z,99564.78
2019-02-05T18:41:48.589Z,99563.60
2019-02-05T18:46:54.714Z,99571.20
2019-02-05T18:52:00.696Z,99576.13
2019-02-05T18:57:06.663Z,99560.94
2019-02-05T19:02:12.766Z,99567.31
2019-02-05T19:07:18.838Z,99556.77
2019-02-05T19:12:24.482Z,99568.64
2019-02-05T19:17:30.354Z,99563.89
2019-02-05T19:22:35.991Z,99568.77
2019-02-05T19:27:41.543Z,99571.59
2019-02-05T19:32:47.763Z,99573.73
2019-02-05T19:37:54.362Z,99572.43
2019-02-05T19:43:00.128Z,99579.66
2019-02-05T19:48:08.509Z,99579.89
2019-02-05T19:53:15.133Z,99583.23
2019-02-05T19:58:21.065Z,99587.75
2019-02-05T20:03:38.027Z,99577.66
2019-02-05T20:08:36.122Z,99583.20
2019-02-05T20:13:42.099Z,99582.84
2019-02-05T20:18:48.672Z,99580.23
2019-02-05T20:23:55.230Z,99585.09
2019-02-05T20:29:01.336Z,99595.66
2019-02-05T20:34:07.614Z,99599.61
2019-02-05T20:39:15.975Z,99596.27
2019-02-05T20:44:22.025Z,99599.11
2019-02-05T20:49:28.528Z,99597.55
2019-02-05T20:54:34.178Z,99597.20
2019-02-05T20:59:40.546Z,99599.71
2019-02-05T21:04:48.669Z,99603.39
2019-02-05T21:09:54.952Z,99603.39
2019-02-05T21:15:01.212Z,99601.73
2019-02-05T21:20:08.750Z,99596.69
2019-02-05T21:25:15.726Z,99594.20
2019-02-05T21:30:21.477Z,99589.34
2019-02-05T21:35:26.811Z,99590.07
2019-02-05T21:40:33.069Z,99598.63
2019-02-05T21:45:39.007Z,99587.02
2019-02-05T21:50:44.541Z,99593.62
2019-02-05T21:55:50.100Z,99599.57
2019-02-05T22:00:55.285Z,99606.69
2019-02-05T22:06:01.047Z,99598.97
2019-02-05T22:11:06.617Z,99602.30
2019-02-05T22:16:12.104Z,99606.58
2019-02-05T22:21:18.313Z,99601.96
2019-02-05T22:26:23.471Z,99605.51
2019-02-05T22:31:29.102Z,99605.52
2019-02-05T22:36:34.355Z,99609.05
2019-02-05T22:41:39.523Z,99618.52
2019-02-05T22:46:44.611Z,99612.47
2019-02-05T22:51:50.836Z,99613.53
2019-02-05T22:56:56.014Z,99611.97
2019-02-05T23:02:03.422Z,99612.30
2019-02-05T23:07:14.948Z,99616.33
2019-02-05T23:12:42.560Z,99618.22
2019-02-05T23:17:47.932Z,99612.50
2019-02-05T23:22:53.093Z,99607.41
2019-02-05T23:27:58.252Z,99600.64
2019-02-05T23:33:04.435Z,99600.39
2019-02-05T23:38:10.042Z,99598.95
2019-02-05T23:43:15.138Z,99595.23
2019-02-05T23:48:22.194Z,99590.80
2019-02-05T23:53:27.424Z,99591.92
2019-02-05T23:58:32.516Z,99593.42
